sensor_id;sensor_type;location;lat;lon;timestamp;P1;durP1;ratioP1;P2;durP2;ratioP2
14748;SDS011;7466;53.574;9.976;2023-12-20T00:01:03;12.93;;;2.83;;
14748;SDS011;7466;53.574;9.976;2023-12-20T00:03:30;14.13;;;2.63;;
14748;SDS011;7466;53.574;9.976;2023-12-20T00:05:57;16.43;;;2.80;;
14748;SDS011;7466;53.574;9.976;2023-12-20T00:08:25;15.97;;;2.70;;
14748;SDS011;7466;53.574;9.976;2023-12-20T00:10:52;12.63;;;2.77;;
14748;SDS011;7466;53.574;9.976;2023-12-20T00:13:21;11.67;;;3.10;;
14748;SDS011;7466;53.574;9.976;2023-12-20T00:15:48;14.83;;;2.70;;
14748;SDS011;7466;53.574;9.976;2023-12-20T00:18:15;18.97;;;2.77;;
14748;SDS011;7466;53.574;9.976;2023-12-20T00:20:43;17.47;;;2.60;;
14748;SDS011;7466;53.574;9.976;2023-12-20T00:23:10;16.67;;;2.60;;
14748;SDS011;7466;53.574;9.976;2023-12-20T00:25:38;22.90;;;2.80;;
14748;SDS011;7466;53.574;9.976;2023-12-20T00:28:05;19.63;;;2.63;;
14748;SDS011;7466;53.574;9.976;2023-12-20T00:30:35;12.83;;;2.70;;
14748;SDS011;7466;53.574;9.976;2023-12-20T00:33:02;11.23;;;2.50;;
14748;SDS011;7466;53.574;9.976;2023-12-20T00:35:30;15.57;;;2.97;;
14748;SDS011;7466;53.574;9.976;2023-12-20T00:37:58;17.17;;;2.93;;
14748;SDS011;7466;53.574;9.976;2023-12-20T00:40:25;21.90;;;2.83;;
14748;SDS011;7466;53.574;9.976;2023-12-20T00:42:55;17.90;;;2.67;;
14748;SDS011;7466;53.574;9.976;2023-12-20T00:45:22;21.23;;;3.10;;
14748;SDS011;7466;53.574;9.976;2023-12-20T00:47:51;15.30;;;2.97;;
14748;SDS011;7466;53.574;9.976;2023-12-20T00:50:19;15.80;;;2.97;;
14748;SDS011;7466;53.574;9.976;2023-12-20T00:52:47;14.93;;;2.93;;
14748;SDS011;7466;53.574;9.976;2023-12-20T00:55:14;13.50;;;2.73;;
14748;SDS011;7466;53.574;9.976;2023-12-20T00:57:41;17.93;;;2.67;;
14748;SDS011;7466;53.574;9.976;2023-12-20T01:00:09;12.83;;;2.70;;
14748;SDS011;7466;53.574;9.976;2023-12-20T01:02:38;20.57;;;3.43;;
14748;SDS011;7466;53.574;9.976;2023-12-20T01:05:08;21.47;;;3.10;;
14748;SDS011;7466;53.574;9.976;2023-12-20T01:07:35;19.70;;;2.87;;
14748;SDS011;7466;53.574;9.976;2023-12-20T01:10:03;16.33;;;2.97;;
14748;SDS011;7466;53.574;9.976;2023-12-20T01:12:30;17.13;;;3.07;;
14748;SDS011;7466;53.574;9.976;2023-12-20T01:14:57;24.37;;;3.00;;
14748;SDS011;7466;53.574;9.976;2023-12-20T01:17:23;17.53;;;2.57;;
14748;SDS011;7466;53.574;9.976;2023-12-20T01:19:50;18.20;;;2.60;;
14748;SDS011;7466;53.574;9.976;2023-12-20T01:22:18;19.03;;;2.87;;
14748;SDS011;7466;53.574;9.976;2023-12-20T01:24:45;18.27;;;2.87;;
14748;SDS011;7466;53.574;9.976;2023-12-20T01:27:12;19.47;;;3.00;;
14748;SDS011;7466;53.574;9.976;2023-12-20T01:29:38;16.33;;;3.43;;
14748;SDS011;7466;53.574;9.976;2023-12-20T01:32:05;18.40;;;3.07;;
14748;SDS011;7466;53.574;9.976;2023-12-20T01:34:32;16.47;;;2.47;;
14748;SDS011;7466;53.574;9.976;2023-12-20T01:36:59;16.73;;;2.80;;
14748;SDS011;7466;53.574;9.976;2023-12-20T01:39:28;21.17;;;3.10;;
14748;SDS011;7466;53.574;9.976;2023-12-20T01:41:54;17.37;;;2.77;;
14748;SDS011;7466;53.574;9.976;2023-12-20T01:44:21;13.67;;;2.73;;
14748;SDS011;7466;53.574;9.976;2023-12-20T01:46:48;16.03;;;2.80;;
14748;SDS011;7466;53.574;9.976;2023-12-20T01:49:15;22.27;;;2.90;;
14748;SDS011;7466;53.574;9.976;2023-12-20T01:51:42;15.37;;;2.33;;
14748;SDS011;7466;53.574;9.976;2023-12-20T01:54:09;13.67;;;2.60;;
14748;SDS011;7466;53.574;9.976;2023-12-20T01:56:37;19.90;;;3.10;;
14748;SDS011;7466;53.574;9.976;2023-12-20T01:59:05;16.00;;;2.90;;
14748;SDS011;7466;53.574;9.976;2023-12-20T02:01:34;17.57;;;2.80;;
14748;SDS011;7466;53.574;9.976;2023-12-20T02:04:01;21.53;;;3.07;;
14748;SDS011;7466;53.574;9.976;2023-12-20T02:06:29;19.00;;;3.20;;
14748;SDS011;7466;53.574;9.976;2023-12-20T02:08:56;15.93;;;2.97;;
14748;SDS011;7466;53.574;9.976;2023-12-20T02:11:23;18.40;;;3.57;;
14748;SDS011;7466;53.574;9.976;2023-12-20T02:13:52;16.87;;;2.67;;
14748;SDS011;7466;53.574;9.976;2023-12-20T02:16:19;20.70;;;3.17;;
14748;SDS011;7466;53.574;9.976;2023-12-20T02:18:47;24.20;;;3.47;;
14748;SDS011;7466;53.574;9.976;2023-12-20T02:21:13;15.97;;;2.73;;
14748;SDS011;7466;53.574;9.976;2023-12-20T02:23:42;12.63;;;2.83;;
14748;SDS011;7466;53.574;9.976;2023-12-20T02:26:09;14.77;;;2.57;;
14748;SDS011;7466;53.574;9.976;2023-12-20T02:28:38;16.70;;;2.93;;
14748;SDS011;7466;53.574;9.976;2023-12-20T02:31:05;18.50;;;2.70;;
14748;SDS011;7466;53.574;9.976;2023-12-20T02:33:31;18.20;;;3.00;;
14748;SDS011;7466;53.574;9.976;2023-12-20T02:35:58;20.63;;;2.80;;
14748;SDS011;7466;53.574;9.976;2023-12-20T02:38:25;12.50;;;2.30;;
14748;SDS011;7466;53.574;9.976;2023-12-20T02:40:53;17.13;;;2.57;;
14748;SDS011;7466;53.574;9.976;2023-12-20T02:43:19;18.87;;;2.77;;
14748;SDS011;7466;53.574;9.976;2023-12-20T02:45:46;13.93;;;3.23;;
14748;SDS011;7466;53.574;9.976;2023-12-20T02:48:13;17.40;;;2.60;;
14748;SDS011;7466;53.574;9.976;2023-12-20T02:50:39;13.50;;;2.80;;
14748;SDS011;7466;53.574;9.976;2023-12-20T02:53:06;16.00;;;2.97;;
14748;SDS011;7466;53.574;9.976;2023-12-20T02:55:33;18.90;;;3.40;;
14748;SDS011;7466;53.574;9.976;2023-12-20T02:58:01;14.20;;;2.80;;
14748;SDS011;7466;53.574;9.976;2023-12-20T03:00:27;11.93;;;2.43;;
14748;SDS011;7466;53.574;9.976;2023-12-20T03:02:54;15.27;;;3.00;;
14748;SDS011;7466;53.574;9.976;2023-12-20T03:05:21;15.90;;;2.83;;
14748;SDS011;7466;53.574;9.976;2023-12-20T03:07:47;10.77;;;2.23;;
14748;SDS011;7466;53.574;9.976;2023-12-20T03:10:14;10.70;;;2.60;;
14748;SDS011;7466;53.574;9.976;2023-12-20T03:12:41;10.43;;;2.80;;
14748;SDS011;7466;53.574;9.976;2023-12-20T03:15:09;11.30;;;2.20;;
14748;SDS011;7466;53.574;9.976;2023-12-20T03:17:36;22.87;;;3.13;;
14748;SDS011;7466;53.574;9.976;2023-12-20T03:20:03;13.40;;;2.93;;
14748;SDS011;7466;53.574;9.976;2023-12-20T03:22:31;13.57;;;2.73;;
14748;SDS011;7466;53.574;9.976;2023-12-20T03:24:57;12.03;;;2.97;;
14748;SDS011;7466;53.574;9.976;2023-12-20T03:27:24;19.83;;;2.87;;
14748;SDS011;7466;53.574;9.976;2023-12-20T03:29:51;9.17;;;2.50;;
14748;SDS011;7466;53.574;9.976;2023-12-20T03:32:19;13.67;;;2.97;;
14748;SDS011;7466;53.574;9.976;2023-12-20T03:34:45;16.57;;;3.37;;
14748;SDS011;7466;53.574;9.976;2023-12-20T03:37:13;18.57;;;3.13;;
14748;SDS011;7466;53.574;9.976;2023-12-20T03:39:40;14.30;;;2.77;;
14748;SDS011;7466;53.574;9.976;2023-12-20T03:42:06;11.97;;;2.93;;
14748;SDS011;7466;53.574;9.976;2023-12-20T03:44:33;13.50;;;2.80;;
14748;SDS011;7466;53.574;9.976;2023-12-20T03:47:00;12.70;;;2.57;;
14748;SDS011;7466;53.574;9.976;2023-12-20T03:49:28;13.97;;;2.90;;
14748;SDS011;7466;53.574;9.976;2023-12-20T03:51:54;12.97;;;2.67;;
14748;SDS011;7466;53.574;9.976;2023-12-20T03:54:21;14.57;;;2.70;;
14748;SDS011;7466;53.574;9.976;2023-12-20T03:56:48;13.77;;;3.00;;
14748;SDS011;7466;53.574;9.976;2023-12-20T03:59:15;17.20;;;3.07;;
14748;SDS011;7466;53.574;9.976;2023-12-20T04:01:42;12.13;;;2.70;;
14748;SDS011;7466;53.574;9.976;2023-12-20T04:04:09;8.03;;;2.50;;
14748;SDS011;7466;53.574;9.976;2023-12-20T04:06:37;21.20;;;3.60;;
14748;SDS011;7466;53.574;9.976;2023-12-20T04:09:04;18.20;;;2.70;;
14748;SDS011;7466;53.574;9.976;2023-12-20T04:11:31;8.87;;;2.37;;
14748;SDS011;7466;53.574;9.976;2023-12-20T04:13:58;8.50;;;2.67;;
14748;SDS011;7466;53.574;9.976;2023-12-20T04:16:24;13.77;;;2.60;;
14748;SDS011;7466;53.574;9.976;2023-12-20T04:18:51;10.90;;;2.63;;
14748;SDS011;7466;53.574;9.976;2023-12-20T04:21:18;9.40;;;2.43;;
14748;SDS011;7466;53.574;9.976;2023-12-20T04:23:46;11.13;;;2.70;;
14748;SDS011;7466;53.574;9.976;2023-12-20T04:26:12;11.90;;;2.60;;
14748;SDS011;7466;53.574;9.976;2023-12-20T04:28:39;10.47;;;2.50;;
14748;SDS011;7466;53.574;9.976;2023-12-20T04:31:06;6.80;;;2.37;;
14748;SDS011;7466;53.574;9.976;2023-12-20T04:33:32;14.47;;;2.33;;
14748;SDS011;7466;53.574;9.976;2023-12-20T04:35:59;11.17;;;2.40;;
14748;SDS011;7466;53.574;9.976;2023-12-20T04:38:26;7.03;;;2.17;;
14748;SDS011;7466;53.574;9.976;2023-12-20T04:40:54;15.57;;;2.67;;
14748;SDS011;7466;53.574;9.976;2023-12-20T04:43:21;10.57;;;2.40;;
14748;SDS011;7466;53.574;9.976;2023-12-20T04:45:47;11.27;;;2.63;;
14748;SDS011;7466;53.574;9.976;2023-12-20T04:48:14;13.13;;;2.30;;
14748;SDS011;7466;53.574;9.976;2023-12-20T04:50:41;13.23;;;2.97;;
14748;SDS011;7466;53.574;9.976;2023-12-20T04:53:07;10.57;;;2.70;;
14748;SDS011;7466;53.574;9.976;2023-12-20T04:55:34;13.57;;;2.93;;
14748;SDS011;7466;53.574;9.976;2023-12-20T04:58:03;15.70;;;2.60;;
14748;SDS011;7466;53.574;9.976;2023-12-20T05:00:29;13.13;;;2.97;;
14748;SDS011;7466;53.574;9.976;2023-12-20T05:02:56;9.53;;;2.60;;
14748;SDS011;7466;53.574;9.976;2023-12-20T05:05:23;12.30;;;2.70;;
14748;SDS011;7466;53.574;9.976;2023-12-20T05:07:50;15.63;;;2.83;;
14748;SDS011;7466;53.574;9.976;2023-12-20T05:10:17;17.20;;;3.40;;
14748;SDS011;7466;53.574;9.976;2023-12-20T05:12:44;23.27;;;3.73;;
14748;SDS011;7466;53.574;9.976;2023-12-20T05:15:12;13.90;;;3.63;;
14748;SDS011;7466;53.574;9.976;2023-12-20T05:17:39;8.33;;;3.07;;
14748;SDS011;7466;53.574;9.976;2023-12-20T05:20:06;21.73;;;3.70;;
14748;SDS011;7466;53.574;9.976;2023-12-20T05:22:34;16.97;;;3.50;;
14748;SDS011;7466;53.574;9.976;2023-12-20T05:25:00;13.87;;;2.83;;
14748;SDS011;7466;53.574;9.976;2023-12-20T05:27:27;20.10;;;3.00;;
14748;SDS011;7466;53.574;9.976;2023-12-20T05:29:54;13.47;;;3.63;;
14748;SDS011;7466;53.574;9.976;2023-12-20T05:32:23;12.70;;;2.63;;
14748;SDS011;7466;53.574;9.976;2023-12-20T05:34:51;18.77;;;3.40;;
14748;SDS011;7466;53.574;9.976;2023-12-20T05:37:18;15.50;;;3.37;;
14748;SDS011;7466;53.574;9.976;2023-12-20T05:39:44;20.43;;;3.57;;
14748;SDS011;7466;53.574;9.976;2023-12-20T05:42:11;13.63;;;3.10;;
14748;SDS011;7466;53.574;9.976;2023-12-20T05:44:38;19.03;;;3.40;;
14748;SDS011;7466;53.574;9.976;2023-12-20T05:47:05;15.20;;;3.30;;
14748;SDS011;7466;53.574;9.976;2023-12-20T05:49:34;11.87;;;3.50;;
14748;SDS011;7466;53.574;9.976;2023-12-20T05:52:00;18.97;;;3.17;;
14748;SDS011;7466;53.574;9.976;2023-12-20T05:54:27;15.87;;;3.43;;
14748;SDS011;7466;53.574;9.976;2023-12-20T05:56:54;9.77;;;2.93;;
14748;SDS011;7466;53.574;9.976;2023-12-20T05:59:20;14.27;;;3.60;;
14748;SDS011;7466;53.574;9.976;2023-12-20T06:01:47;22.17;;;3.47;;
14748;SDS011;7466;53.574;9.976;2023-12-20T06:04:14;11.03;;;2.77;;
14748;SDS011;7466;53.574;9.976;2023-12-20T06:06:42;13.07;;;3.40;;
14748;SDS011;7466;53.574;9.976;2023-12-20T06:09:09;12.07;;;2.97;;
14748;SDS011;7466;53.574;9.976;2023-12-20T06:11:36;11.43;;;3.03;;
14748;SDS011;7466;53.574;9.976;2023-12-20T06:14:03;13.47;;;3.03;;
14748;SDS011;7466;53.574;9.976;2023-12-20T06:16:30;16.60;;;3.20;;
14748;SDS011;7466;53.574;9.976;2023-12-20T06:18:56;15.00;;;2.97;;
14748;SDS011;7466;53.574;9.976;2023-12-20T06:21:23;16.97;;;3.47;;
14748;SDS011;7466;53.574;9.976;2023-12-20T06:23:51;19.47;;;3.47;;
14748;SDS011;7466;53.574;9.976;2023-12-20T06:26:18;14.00;;;3.40;;
14748;SDS011;7466;53.574;9.976;2023-12-20T06:28:44;17.10;;;3.37;;
14748;SDS011;7466;53.574;9.976;2023-12-20T06:31:11;15.03;;;3.20;;
14748;SDS011;7466;53.574;9.976;2023-12-20T06:33:38;15.53;;;3.00;;
14748;SDS011;7466;53.574;9.976;2023-12-20T06:36:07;14.37;;;3.40;;
14748;SDS011;7466;53.574;9.976;2023-12-20T06:38:34;13.77;;;3.23;;
14748;SDS011;7466;53.574;9.976;2023-12-20T06:41:02;17.33;;;3.40;;
14748;SDS011;7466;53.574;9.976;2023-12-20T06:43:29;13.77;;;3.87;;
14748;SDS011;7466;53.574;9.976;2023-12-20T06:45:56;20.70;;;2.80;;
14748;SDS011;7466;53.574;9.976;2023-12-20T06:48:22;16.27;;;3.27;;
14748;SDS011;7466;53.574;9.976;2023-12-20T06:50:49;15.77;;;3.27;;
14748;SDS011;7466;53.574;9.976;2023-12-20T06:53:16;15.00;;;3.60;;
14748;SDS011;7466;53.574;9.976;2023-12-20T06:55:43;14.00;;;3.40;;
14748;SDS011;7466;53.574;9.976;2023-12-20T06:58:11;15.43;;;3.40;;
14748;SDS011;7466;53.574;9.976;2023-12-20T07:00:37;11.93;;;3.47;;
14748;SDS011;7466;53.574;9.976;2023-12-20T07:03:04;17.73;;;3.77;;
14748;SDS011;7466;53.574;9.976;2023-12-20T07:05:31;17.33;;;3.17;;
14748;SDS011;7466;53.574;9.976;2023-12-20T07:07:58;13.17;;;3.50;;
14748;SDS011;7466;53.574;9.976;2023-12-20T07:10:25;19.13;;;3.13;;
14748;SDS011;7466;53.574;9.976;2023-12-20T07:12:51;14.53;;;3.47;;
14748;SDS011;7466;53.574;9.976;2023-12-20T07:15:21;16.47;;;3.17;;
14748;SDS011;7466;53.574;9.976;2023-12-20T07:17:48;17.63;;;3.43;;
14748;SDS011;7466;53.574;9.976;2023-12-20T07:20:15;14.13;;;3.63;;
14748;SDS011;7466;53.574;9.976;2023-12-20T07:22:42;22.97;;;3.37;;
14748;SDS011;7466;53.574;9.976;2023-12-20T07:25:08;16.13;;;3.40;;
14748;SDS011;7466;53.574;9.976;2023-12-20T07:27:35;13.40;;;3.37;;
14748;SDS011;7466;53.574;9.976;2023-12-20T07:30:02;13.27;;;3.37;;
14748;SDS011;7466;53.574;9.976;2023-12-20T07:32:31;24.30;;;4.07;;
14748;SDS011;7466;53.574;9.976;2023-12-20T07:34:58;16.10;;;3.90;;
14748;SDS011;7466;53.574;9.976;2023-12-20T07:37:25;17.20;;;3.97;;
14748;SDS011;7466;53.574;9.976;2023-12-20T07:39:52;18.83;;;4.20;;
14748;SDS011;7466;53.574;9.976;2023-12-20T07:42:18;23.33;;;3.70;;
14748;SDS011;7466;53.574;9.976;2023-12-20T07:44:47;14.67;;;3.50;;
14748;SDS011;7466;53.574;9.976;2023-12-20T07:47:13;17.20;;;3.83;;
14748;SDS011;7466;53.574;9.976;2023-12-20T07:49:45;16.80;;;4.30;;
14748;SDS011;7466;53.574;9.976;2023-12-20T07:52:12;19.43;;;3.97;;
14748;SDS011;7466;53.574;9.976;2023-12-20T07:54:39;21.33;;;3.63;;
14748;SDS011;7466;53.574;9.976;2023-12-20T07:57:06;26.83;;;4.30;;
14748;SDS011;7466;53.574;9.976;2023-12-20T07:59:33;18.47;;;3.13;;
14748;SDS011;7466;53.574;9.976;2023-12-20T08:01:59;21.80;;;3.40;;
14748;SDS011;7466;53.574;9.976;2023-12-20T08:04:26;13.00;;;2.70;;
14748;SDS011;7466;53.574;9.976;2023-12-20T08:06:54;18.87;;;3.60;;
14748;SDS011;7466;53.574;9.976;2023-12-20T08:09:21;19.93;;;4.23;;
14748;SDS011;7466;53.574;9.976;2023-12-20T08:11:48;17.20;;;3.53;;
14748;SDS011;7466;53.574;9.976;2023-12-20T08:14:14;19.90;;;3.40;;
14748;SDS011;7466;53.574;9.976;2023-12-20T08:16:41;21.33;;;3.83;;
14748;SDS011;7466;53.574;9.976;2023-12-20T08:19:08;17.40;;;3.53;;
14748;SDS011;7466;53.574;9.976;2023-12-20T08:21:35;20.10;;;4.00;;
14748;SDS011;7466;53.574;9.976;2023-12-20T08:24:03;19.93;;;3.70;;
14748;SDS011;7466;53.574;9.976;2023-12-20T08:26:30;18.53;;;4.27;;
14748;SDS011;7466;53.574;9.976;2023-12-20T08:28:56;13.93;;;3.50;;
14748;SDS011;7466;53.574;9.976;2023-12-20T08:31:23;18.53;;;4.13;;
14748;SDS011;7466;53.574;9.976;2023-12-20T08:33:51;18.80;;;4.10;;
14748;SDS011;7466;53.574;9.976;2023-12-20T08:36:18;25.47;;;3.77;;
14748;SDS011;7466;53.574;9.976;2023-12-20T08:38:46;19.53;;;3.97;;
14748;SDS011;7466;53.574;9.976;2023-12-20T08:41:15;19.50;;;4.30;;
14748;SDS011;7466;53.574;9.976;2023-12-20T08:43:42;16.83;;;3.40;;
14748;SDS011;7466;53.574;9.976;2023-12-20T08:46:09;16.80;;;4.00;;
14748;SDS011;7466;53.574;9.976;2023-12-20T08:48:35;17.13;;;4.00;;
14748;SDS011;7466;53.574;9.976;2023-12-20T08:51:02;19.97;;;3.47;;
14748;SDS011;7466;53.574;9.976;2023-12-20T08:53:29;17.67;;;3.80;;
14748;SDS011;7466;53.574;9.976;2023-12-20T08:55:56;20.07;;;6.33;;
14748;SDS011;7466;53.574;9.976;2023-12-20T08:58:27;16.50;;;3.50;;
14748;SDS011;7466;53.574;9.976;2023-12-20T09:00:54;16.77;;;3.33;;
14748;SDS011;7466;53.574;9.976;2023-12-20T09:03:20;19.57;;;3.97;;
14748;SDS011;7466;53.574;9.976;2023-12-20T09:05:47;11.00;;;2.87;;
14748;SDS011;7466;53.574;9.976;2023-12-20T09:08:14;8.70;;;2.70;;
14748;SDS011;7466;53.574;9.976;2023-12-20T09:10:40;6.00;;;2.30;;
14748;SDS011;7466;53.574;9.976;2023-12-20T09:13:07;17.30;;;3.27;;
14748;SDS011;7466;53.574;9.976;2023-12-20T09:15:35;14.43;;;3.20;;
14748;SDS011;7466;53.574;9.976;2023-12-20T09:18:02;18.80;;;3.30;;
14748;SDS011;7466;53.574;9.976;2023-12-20T09:20:29;13.37;;;3.03;;
14748;SDS011;7466;53.574;9.976;2023-12-20T09:22:56;9.30;;;2.60;;
14748;SDS011;7466;53.574;9.976;2023-12-20T09:25:23;10.20;;;3.20;;
14748;SDS011;7466;53.574;9.976;2023-12-20T09:27:51;11.10;;;2.63;;
14748;SDS011;7466;53.574;9.976;2023-12-20T09:30:18;5.63;;;2.07;;
14748;SDS011;7466;53.574;9.976;2023-12-20T09:32:46;4.37;;;1.87;;
14748;SDS011;7466;53.574;9.976;2023-12-20T09:35:13;7.60;;;1.70;;
14748;SDS011;7466;53.574;9.976;2023-12-20T09:37:40;8.70;;;2.00;;
14748;SDS011;7466;53.574;9.976;2023-12-20T09:40:10;4.80;;;1.67;;
14748;SDS011;7466;53.574;9.976;2023-12-20T09:42:39;4.90;;;1.60;;
14748;SDS011;7466;53.574;9.976;2023-12-20T09:45:14;6.20;;;1.90;;
14748;SDS011;7466;53.574;9.976;2023-12-20T09:47:42;5.97;;;1.40;;
14748;SDS011;7466;53.574;9.976;2023-12-20T09:50:11;2.40;;;0.97;;
14748;SDS011;7466;53.574;9.976;2023-12-20T09:52:39;1.77;;;1.00;;
14748;SDS011;7466;53.574;9.976;2023-12-20T09:55:06;1.93;;;1.00;;
14748;SDS011;7466;53.574;9.976;2023-12-20T09:57:34;3.63;;;1.00;;
14748;SDS011;7466;53.574;9.976;2023-12-20T10:00:01;3.10;;;0.80;;
14748;SDS011;7466;53.574;9.976;2023-12-20T10:02:28;1.73;;;0.87;;
14748;SDS011;7466;53.574;9.976;2023-12-20T10:04:57;2.67;;;1.10;;
14748;SDS011;7466;53.574;9.976;2023-12-20T10:07:26;8.27;;;4.33;;
14748;SDS011;7466;53.574;9.976;2023-12-20T10:09:54;2.27;;;1.00;;
14748;SDS011;7466;53.574;9.976;2023-12-20T10:12:21;1.77;;;1.10;;
14748;SDS011;7466;53.574;9.976;2023-12-20T10:14:48;4.50;;;1.00;;
14748;SDS011;7466;53.574;9.976;2023-12-20T10:17:16;1.83;;;1.30;;
14748;SDS011;7466;53.574;9.976;2023-12-20T10:19:43;3.03;;;1.20;;
14748;SDS011;7466;53.574;9.976;2023-12-20T10:22:10;6.33;;;1.50;;
14748;SDS011;7466;53.574;9.976;2023-12-20T10:24:38;1.37;;;1.10;;
14748;SDS011;7466;53.574;9.976;2023-12-20T10:27:07;2.70;;;1.20;;
14748;SDS011;7466;53.574;9.976;2023-12-20T10:29:35;3.03;;;1.03;;
14748;SDS011;7466;53.574;9.976;2023-12-20T10:34:50;7.57;;;3.10;;
14748;SDS011;7466;53.574;9.976;2023-12-20T10:37:17;2.97;;;1.53;;
14748;SDS011;7466;53.574;9.976;2023-12-20T10:39:45;8.33;;;1.93;;
14748;SDS011;7466;53.574;9.976;2023-12-20T10:42:17;4.67;;;1.33;;
14748;SDS011;7466;53.574;9.976;2023-12-20T10:44:44;3.93;;;1.77;;
14748;SDS011;7466;53.574;9.976;2023-12-20T10:47:10;5.47;;;2.10;;
14748;SDS011;7466;53.574;9.976;2023-12-20T10:49:39;3.40;;;1.20;;
14748;SDS011;7466;53.574;9.976;2023-12-20T10:52:07;6.07;;;1.40;;
14748;SDS011;7466;53.574;9.976;2023-12-20T10:54:35;3.13;;;0.93;;
14748;SDS011;7466;53.574;9.976;2023-12-20T10:57:03;4.23;;;1.43;;
14748;SDS011;7466;53.574;9.976;2023-12-20T10:59:32;6.63;;;1.73;;
14748;SDS011;7466;53.574;9.976;2023-12-20T11:02:00;3.00;;;1.40;;
14748;SDS011;7466;53.574;9.976;2023-12-20T11:04:31;9.87;;;1.80;;
14748;SDS011;7466;53.574;9.976;2023-12-20T11:07:06;5.77;;;1.50;;
14748;SDS011;7466;53.574;9.976;2023-12-20T11:09:43;8.73;;;1.60;;
14748;SDS011;7466;53.574;9.976;2023-12-20T11:12:16;6.47;;;1.70;;
14748;SDS011;7466;53.574;9.976;2023-12-20T11:14:47;9.17;;;2.03;;
14748;SDS011;7466;53.574;9.976;2023-12-20T11:17:16;15.73;;;2.00;;
14748;SDS011;7466;53.574;9.976;2023-12-20T11:20:03;7.73;;;2.07;;
14748;SDS011;7466;53.574;9.976;2023-12-20T11:22:31;6.43;;;1.40;;
14748;SDS011;7466;53.574;9.976;2023-12-20T11:24:59;6.77;;;1.60;;
14748;SDS011;7466;53.574;9.976;2023-12-20T11:27:31;8.20;;;1.57;;
14748;SDS011;7466;53.574;9.976;2023-12-20T11:29:58;4.03;;;1.37;;
14748;SDS011;7466;53.574;9.976;2023-12-20T11:32:28;9.17;;;1.87;;
14748;SDS011;7466;53.574;9.976;2023-12-20T11:34:55;11.10;;;2.07;;
14748;SDS011;7466;53.574;9.976;2023-12-20T11:37:28;5.67;;;1.80;;
14748;SDS011;7466;53.574;9.976;2023-12-20T11:39:56;6.50;;;1.83;;
14748;SDS011;7466;53.574;9.976;2023-12-20T11:42:27;6.83;;;2.00;;
14748;SDS011;7466;53.574;9.976;2023-12-20T11:44:55;8.63;;;1.80;;
14748;SDS011;7466;53.574;9.976;2023-12-20T11:47:22;10.80;;;2.20;;
14748;SDS011;7466;53.574;9.976;2023-12-20T11:49:49;7.80;;;2.20;;
14748;SDS011;7466;53.574;9.976;2023-12-20T11:52:16;7.47;;;1.90;;
14748;SDS011;7466;53.574;9.976;2023-12-20T11:54:43;10.53;;;2.33;;
14748;SDS011;7466;53.574;9.976;2023-12-20T11:57:09;13.67;;;2.80;;
14748;SDS011;7466;53.574;9.976;2023-12-20T11:59:36;16.73;;;2.93;;
14748;SDS011;7466;53.574;9.976;2023-12-20T12:02:04;13.23;;;2.50;;
14748;SDS011;7466;53.574;9.976;2023-12-20T12:04:31;11.80;;;3.03;;
14748;SDS011;7466;53.574;9.976;2023-12-20T12:06:58;11.70;;;2.40;;
14748;SDS011;7466;53.574;9.976;2023-12-20T12:09:25;12.23;;;2.07;;
14748;SDS011;7466;53.574;9.976;2023-12-20T12:11:51;11.10;;;2.33;;
14748;SDS011;7466;53.574;9.976;2023-12-20T12:14:18;6.17;;;2.13;;
14748;SDS011;7466;53.574;9.976;2023-12-20T12:16:45;14.70;;;2.30;;
14748;SDS011;7466;53.574;9.976;2023-12-20T12:19:21;10.20;;;2.80;;
14748;SDS011;7466;53.574;9.976;2023-12-20T12:21:48;18.53;;;3.17;;
14748;SDS011;7466;53.574;9.976;2023-12-20T12:24:15;11.13;;;2.80;;
14748;SDS011;7466;53.574;9.976;2023-12-20T12:26:49;11.57;;;2.30;;
14748;SDS011;7466;53.574;9.976;2023-12-20T12:29:16;14.13;;;2.77;;
14748;SDS011;7466;53.574;9.976;2023-12-20T12:31:43;14.67;;;3.10;;
14748;SDS011;7466;53.574;9.976;2023-12-20T12:34:09;13.57;;;2.57;;
14748;SDS011;7466;53.574;9.976;2023-12-20T12:36:38;12.80;;;2.60;;
14748;SDS011;7466;53.574;9.976;2023-12-20T12:39:06;18.13;;;3.00;;
14748;SDS011;7466;53.574;9.976;2023-12-20T12:41:33;15.40;;;3.10;;
14748;SDS011;7466;53.574;9.976;2023-12-20T12:44:00;15.73;;;3.40;;
14748;SDS011;7466;53.574;9.976;2023-12-20T12:46:27;16.60;;;2.90;;
14748;SDS011;7466;53.574;9.976;2023-12-20T12:48:53;10.40;;;2.73;;
14748;SDS011;7466;53.574;9.976;2023-12-20T12:51:20;18.30;;;2.90;;
14748;SDS011;7466;53.574;9.976;2023-12-20T12:53:48;9.87;;;2.43;;
14748;SDS011;7466;53.574;9.976;2023-12-20T12:56:15;14.63;;;2.70;;
14748;SDS011;7466;53.574;9.976;2023-12-20T12:58:42;15.70;;;3.27;;
14748;SDS011;7466;53.574;9.976;2023-12-20T13:01:09;13.80;;;3.20;;
14748;SDS011;7466;53.574;9.976;2023-12-20T13:03:36;17.77;;;2.80;;
14748;SDS011;7466;53.574;9.976;2023-12-20T13:06:03;12.40;;;3.27;;
14748;SDS011;7466;53.574;9.976;2023-12-20T13:08:31;17.90;;;2.87;;
14748;SDS011;7466;53.574;9.976;2023-12-20T13:10:59;7.47;;;2.43;;
14748;SDS011;7466;53.574;9.976;2023-12-20T13:13:29;12.87;;;2.87;;
14748;SDS011;7466;53.574;9.976;2023-12-20T13:15:55;12.07;;;3.03;;
14748;SDS011;7466;53.574;9.976;2023-12-20T13:18:22;23.43;;;3.70;;
14748;SDS011;7466;53.574;9.976;2023-12-20T13:20:49;12.50;;;2.73;;
14748;SDS011;7466;53.574;9.976;2023-12-20T13:23:16;16.00;;;3.60;;
14748;SDS011;7466;53.574;9.976;2023-12-20T13:25:44;15.63;;;2.77;;
14748;SDS011;7466;53.574;9.976;2023-12-20T13:28:13;12.93;;;3.10;;
14748;SDS011;7466;53.574;9.976;2023-12-20T13:30:40;12.80;;;3.17;;
14748;SDS011;7466;53.574;9.976;2023-12-20T13:33:06;16.73;;;3.63;;
14748;SDS011;7466;53.574;9.976;2023-12-20T13:35:33;15.93;;;3.20;;
14748;SDS011;7466;53.574;9.976;2023-12-20T13:38:00;16.30;;;3.60;;
14748;SDS011;7466;53.574;9.976;2023-12-20T13:40:27;14.07;;;3.23;;
14748;SDS011;7466;53.574;9.976;2023-12-20T13:42:54;20.37;;;3.77;;
14748;SDS011;7466;53.574;9.976;2023-12-20T13:45:22;15.73;;;4.03;;
14748;SDS011;7466;53.574;9.976;2023-12-20T13:47:50;18.20;;;3.73;;
14748;SDS011;7466;53.574;9.976;2023-12-20T13:50:17;18.80;;;4.00;;
14748;SDS011;7466;53.574;9.976;2023-12-20T13:52:43;19.57;;;4.53;;
14748;SDS011;7466;53.574;9.976;2023-12-20T13:55:11;23.67;;;4.47;;
14748;SDS011;7466;53.574;9.976;2023-12-20T13:57:38;25.17;;;4.60;;
14748;SDS011;7466;53.574;9.976;2023-12-20T14:00:06;24.33;;;4.67;;
14748;SDS011;7466;53.574;9.976;2023-12-20T14:02:40;25.30;;;4.87;;
14748;SDS011;7466;53.574;9.976;2023-12-20T14:05:07;23.30;;;4.73;;
14748;SDS011;7466;53.574;9.976;2023-12-20T14:07:35;19.80;;;4.53;;
14748;SDS011;7466;53.574;9.976;2023-12-20T14:10:02;21.27;;;4.80;;
14748;SDS011;7466;53.574;9.976;2023-12-20T14:12:30;18.87;;;4.50;;
14748;SDS011;7466;53.574;9.976;2023-12-20T14:15:00;24.47;;;4.53;;
14748;SDS011;7466;53.574;9.976;2023-12-20T14:17:27;21.30;;;4.43;;
14748;SDS011;7466;53.574;9.976;2023-12-20T14:19:55;22.87;;;4.97;;
14748;SDS011;7466;53.574;9.976;2023-12-20T14:22:22;25.23;;;4.43;;
14748;SDS011;7466;53.574;9.976;2023-12-20T14:24:50;21.57;;;4.53;;
14748;SDS011;7466;53.574;9.976;2023-12-20T14:27:17;20.97;;;4.63;;
14748;SDS011;7466;53.574;9.976;2023-12-20T14:29:46;17.67;;;4.80;;
14748;SDS011;7466;53.574;9.976;2023-12-20T14:32:12;17.73;;;4.10;;
14748;SDS011;7466;53.574;9.976;2023-12-20T14:34:40;21.33;;;5.00;;
14748;SDS011;7466;53.574;9.976;2023-12-20T14:37:08;25.00;;;4.47;;
14748;SDS011;7466;53.574;9.976;2023-12-20T14:39:35;13.53;;;4.00;;
14748;SDS011;7466;53.574;9.976;2023-12-20T14:42:04;15.37;;;3.80;;
14748;SDS011;7466;53.574;9.976;2023-12-20T14:44:31;19.80;;;4.00;;
14748;SDS011;7466;53.574;9.976;2023-12-20T14:46:58;17.97;;;3.80;;
14748;SDS011;7466;53.574;9.976;2023-12-20T14:49:27;12.60;;;3.80;;
14748;SDS011;7466;53.574;9.976;2023-12-20T14:51:54;17.63;;;4.30;;
14748;SDS011;7466;53.574;9.976;2023-12-20T14:54:22;12.47;;;3.87;;